createdAt,value
2022-10-08T00:02:07.682Z,98008.59
2022-10-08T00:04:34.927Z,98006.16
2022-10-08T00:07:02.093Z,98008.06
2022-10-08T00:09:29.216Z,98010.47
2022-10-08T00:11:56.321Z,98008.88
2022-10-08T00:14:24.914Z,98005.38
2022-10-08T00:16:52.330Z,98005.06
2022-10-08T00:19:19.429Z,98005.06
2022-10-08T00:21:46.980Z,98001.03
2022-10-08T00:24:15.856Z,98003.72
2022-10-08T00:26:44.545Z,98001.56
2022-10-08T00:29:14.540Z,98003.22
2022-10-08T00:31:45.651Z,97997.56
2022-10-08T00:34:15.740Z,98002.13
2022-10-08T00:36:43.022Z,97999.72
2022-10-08T00:39:14.027Z,97992.69
2022-10-08T00:41:42.629Z,98001.56
2022-10-08T00:44:47.999Z,98001.88
2022-10-08T00:47:20.002Z,97999.19
2022-10-08T00:49:49.082Z,97995.09
2022-10-08T00:52:17.114Z,97992.66
2022-10-08T00:54:44.838Z,97994.31
2022-10-08T00:57:12.319Z,97985.09
2022-10-08T00:59:39.488Z,97991.09
2022-10-08T01:02:07.020Z,97976.75
2022-10-08T01:04:36.349Z,97970.28
2022-10-08T01:07:10.448Z,97966.22
2022-10-08T01:09:40.601Z,97964.88
2022-10-08T01:12:14.741Z,97951.94
2022-10-08T01:14:52.576Z,97960.88
2022-10-08T01:17:27.332Z,97959.75
2022-10-08T01:20:17.980Z,97963.56
2022-10-08T01:23:02.141Z,97960.78
2022-10-08T01:25:40.272Z,97958.38
2022-10-08T01:28:20.762Z,97950.06
2022-10-08T01:30:54.237Z,97958.16
2022-10-08T01:33:25.859Z,97947.31
2022-10-08T01:35:57.423Z,97951.13
2022-10-08T01:38:29.176Z,97944.88
2022-10-08T01:40:59.349Z,97934.91
2022-10-08T01:43:33.507Z,97940.59
2022-10-08T01:46:04.925Z,97937.91
2022-10-08T01:48:34.498Z,97937.09
2022-10-08T01:51:06.439Z,97941.13
2022-10-08T01:53:38.110Z,97939.78
2022-10-08T01:56:08.841Z,97937.91
2022-10-08T01:58:43.072Z,97938.16
2022-10-08T02:01:15.539Z,97929.00
2022-10-08T02:03:42.780Z,97937.63
2022-10-08T02:06:09.968Z,97933.88
2022-10-08T02:08:37.096Z,97929.28
2022-10-08T02:11:04.260Z,97929.53
2022-10-08T02:13:31.377Z,97921.97
2022-10-08T02:16:06.903Z,97929.78
2022-10-08T02:18:41.236Z,97929.25
2022-10-08T02:21:14.920Z,97923.34
2022-10-08T02:23:50.232Z,97926.03
2022-10-08T02:26:21.724Z,97923.59
2022-10-08T02:28:54.005Z,97924.16
2022-10-08T02:31:30.912Z,97929.00
2022-10-08T02:34:03.937Z,97920.59
2022-10-08T02:36:35.384Z,97920.91
2022-10-08T02:39:04.623Z,97924.13
2022-10-08T02:41:35.480Z,97929.28
2022-10-08T02:44:07.733Z,97922.78
2022-10-08T02:46:40.451Z,97915.50
2022-10-08T02:49:12.875Z,97921.16
2022-10-08T02:51:42.700Z,97917.16
2022-10-08T02:54:10.575Z,97928.47
2022-10-08T02:56:43.494Z,97917.38
2022-10-08T02:59:11.286Z,97929.53
2022-10-08T03:01:45.003Z,97927.09
2022-10-08T03:04:16.935Z,97937.94
2022-10-08T03:06:44.844Z,97933.06
2022-10-08T03:09:14.303Z,97933.34
2022-10-08T03:11:41.959Z,97929.00
2022-10-08T03:14:12.398Z,97929.84
2022-10-08T03:16:42.713Z,97935.25
2022-10-08T03:19:11.943Z,97941.16
2022-10-08T03:21:41.499Z,97940.31
2022-10-08T03:24:09.538Z,97945.72
2022-10-08T03:26:37.355Z,97941.44
2022-10-08T03:29:05.167Z,97931.44
2022-10-08T03:31:32.518Z,97934.94
2022-10-08T03:34:01.071Z,97931.69
2022-10-08T03:36:28.946Z,97927.94
2022-10-08T03:38:56.191Z,97928.19
2022-10-08T03:41:23.286Z,97936.28
2022-10-08T03:43:50.391Z,97931.97
2022-10-08T03:46:17.637Z,97945.19
2022-10-08T03:48:48.512Z,97935.47
2022-10-08T03:51:18.664Z,97936.03
2022-10-08T03:53:46.001Z,97947.09
2022-10-08T03:56:15.564Z,97947.63
2022-10-08T03:58:42.958Z,97949.00
2022-10-08T04:01:12.550Z,97952.78
2022-10-08T04:03:39.724Z,97956.84
2022-10-08T04:06:07.753Z,97962.25
2022-10-08T04:08:36.668Z,97962.50
2022-10-08T04:11:04.894Z,97957.09
2022-10-08T04:13:32.969Z,97953.63
2022-10-08T04:16:00.840Z,97946.03
2022-10-08T04:18:28.127Z,97952.22
2022-10-08T04:20:57.835Z,97951.97
2022-10-08T04:23:25.238Z,97962.75
2022-10-08T04:25:54.575Z,97952.22
2022-10-08T04:28:22.003Z,97954.66
2022-10-08T04:30:56.734Z,97958.94
2022-10-08T04:33:24.420Z,97948.94
2022-10-08T04:35:56.249Z,97959.22
2022-10-08T04:38:27.434Z,97950.06
2022-10-08T04:41:07.466Z,97947.91
2022-10-08T04:43:34.917Z,97953.28
2022-10-08T04:46:02.581Z,97958.16
2022-10-08T04:48:30.046Z,97961.44
2022-10-08T04:50:58.273Z,97956.28
2022-10-08T04:53:25.540Z,97956.84
2022-10-08T04:55:52.770Z,97957.91
2022-10-08T04:58:21.975Z,97956.31
2022-10-08T05:00:49.082Z,97965.78
2022-10-08T05:03:16.293Z,97967.91
2022-10-08T05:05:45.467Z,97966.84
2022-10-08T05:08:12.884Z,97973.56
2022-10-08T05:10:47.200Z,97979.22
2022-10-08T05:13:14.300Z,97979.22
2022-10-08T05:15:42.798Z,97982.97
2022-10-08T05:18:10.079Z,97973.03
2022-10-08T05:20:37.182Z,97980.28
2022-10-08T05:23:04.286Z,97977.03
2022-10-08T05:25:31.962Z,97971.66
2022-10-08T05:27:59.532Z,97977.31
2022-10-08T05:30:26.736Z,97978.13
2022-10-08T05:32:55.206Z,97967.09
2022-10-08T05:35:22.307Z,97978.16
2022-10-08T05:37:49.390Z,97975.72
2022-10-08T05:40:16.531Z,97976.28
2022-10-08T05:42:43.703Z,97986.78
2022-10-08T05:45:10.884Z,97982.50
2022-10-08T05:47:37.993Z,97986.53
2022-10-08T05:50:07.600Z,97986.00
2022-10-08T05:52:34.713Z,97989.50
2022-10-08T05:55:01.819Z,97986.84
2022-10-08T05:57:28.984Z,97989.53
2022-10-08T05:59:56.102Z,97993.81
2022-10-08T06:02:23.287Z,98002.72
2022-10-08T06:04:50.669Z,97996.25
2022-10-08T06:07:19.166Z,98000.81
2022-10-08T06:09:46.301Z,98001.91
2022-10-08T06:12:13.401Z,98015.94
2022-10-08T06:14:40.497Z,98016.75
2022-10-08T06:17:07.632Z,98009.44
2022-10-08T06:19:35.047Z,98016.72
2022-10-08T06:22:02.185Z,98017.53
2022-10-08T06:24:31.165Z,98018.91
2022-10-08T06:26:58.384Z,98020.81
2022-10-08T06:29:25.597Z,98018.13
2022-10-08T06:31:52.848Z,98024.56
2022-10-08T06:34:20.024Z,98031.31
2022-10-08T06:36:47.233Z,98029.19
2022-10-08T06:39:15.952Z,98031.59
2022-10-08T06:41:44.412Z,98035.38
2022-10-08T06:44:13.421Z,98030.25
2022-10-08T06:46:40.845Z,98032.41
2022-10-08T06:49:09.519Z,98038.66
2022-10-08T06:51:36.609Z,98032.97
2022-10-08T06:54:07.742Z,98030.53
2022-10-08T06:56:36.447Z,98023.25
2022-10-08T06:59:05.876Z,98033.22
2022-10-08T07:01:34.311Z,98039.41
2022-10-08T07:04:02.488Z,98043.72
2022-10-08T07:06:29.956Z,98042.09
2022-10-08T07:08:59.140Z,98041.84
2022-10-08T07:11:26.971Z,98043.72
2022-10-08T07:13:54.276Z,98046.13
2022-10-08T07:16:25.214Z,98048.59
2022-10-08T07:18:54.511Z,98047.50
2022-10-08T07:21:22.558Z,98054.22
2022-10-08T07:23:50.342Z,98051.53
2022-10-08T07:26:19.975Z,98054.81
2022-10-08T07:28:49.893Z,98054.22
2022-10-08T07:31:19.790Z,98061.78
2022-10-08T07:33:48.548Z,98063.97
2022-10-08T07:36:17.770Z,98066.66
2022-10-08T07:38:45.337Z,98060.78
2022-10-08T07:41:13.005Z,98053.78
2022-10-08T07:43:40.448Z,98050.28
2022-10-08T07:46:09.103Z,98054.09
2022-10-08T07:48:36.304Z,98055.75
2022-10-08T07:51:09.960Z,98059.78
2022-10-08T07:53:37.461Z,98072.19
2022-10-08T07:56:04.904Z,98067.34
2022-10-08T07:58:32.675Z,98071.38
2022-10-08T08:01:01.138Z,98072.72
2022-10-08T08:03:28.296Z,98071.91
2022-10-08T08:06:00.663Z,98077.28
2022-10-08T08:08:29.126Z,98082.44
2022-10-08T08:10:57.035Z,98088.88
2022-10-08T08:13:24.309Z,98087.28
2022-10-08T08:15:57.067Z,98085.13
2022-10-08T08:18:24.848Z,98091.56
2022-10-08T08:20:57.649Z,98090.22
2022-10-08T08:23:30.267Z,98099.41
2022-10-08T08:26:00.695Z,98092.91
2022-10-08T08:28:28.133Z,98090.50
2022-10-08T08:30:55.383Z,98094.53
2022-10-08T08:33:22.562Z,98094.25
2022-10-08T08:35:53.011Z,98098.03
2022-10-08T08:38:20.121Z,98104.22
2022-10-08T08:40:48.916Z,98105.03
2022-10-08T08:43:16.208Z,98105.56
2022-10-08T08:45:47.595Z,98104.75
2022-10-08T08:48:21.166Z,98112.81
2022-10-08T08:50:49.827Z,98114.44
2022-10-08T08:53:18.570Z,98119.25
2022-10-08T08:55:50.186Z,98120.63
2022-10-08T08:58:26.975Z,98115.50
2022-10-08T09:01:00.111Z,98117.94
2022-10-08T09:03:33.108Z,98117.13
2022-10-08T09:06:05.913Z,98116.63
2022-10-08T09:08:37.206Z,98110.97
2022-10-08T09:11:06.732Z,98121.75
2022-10-08T09:13:37.541Z,98115.25
2022-10-08T09:16:05.045Z,98119.84
2022-10-08T09:18:32.757Z,98115.81
2022-10-08T09:20:59.840Z,98116.59
2022-10-08T09:23:27.273Z,98115.81
2022-10-08T09:25:58.707Z,98114.19
2022-10-08T09:28:48.775Z,98116.06
2022-10-08T09:31:27.755Z,98100.97
2022-10-08T09:34:01.194Z,98110.16
2022-10-08T09:36:36.147Z,98102.09
2022-10-08T09:39:06.380Z,98100.75
2022-10-08T09:41:34.052Z,98098.31
2022-10-08T09:44:17.054Z,98102.38
2022-10-08T09:46:44.682Z,98096.97
2022-10-08T09:49:27.184Z,98102.38
2022-10-08T09:51:56.918Z,98111.28
2022-10-08T09:54:26.004Z,98108.28
2022-10-08T09:56:55.591Z,98110.72
2022-10-08T09:59:27.117Z,98115.59
2022-10-08T10:01:55.407Z,98117.75
2022-10-08T10:04:33.993Z,98117.75
2022-10-08T10:07:01.950Z,98113.94
2022-10-08T10:09:42.322Z,98116.66
2022-10-08T10:12:20.964Z,98113.13
2022-10-08T10:14:52.404Z,98112.34
2022-10-08T10:17:27.971Z,98108.28
2022-10-08T10:19:59.289Z,98102.38
2022-10-08T10:22:32.407Z,98103.72
2022-10-08T10:25:04.108Z,98093.75
2022-10-08T10:27:35.404Z,98083.75
2022-10-08T10:30:13.313Z,98088.06
2022-10-08T10:32:44.944Z,98084.31
2022-10-08T10:35:17.170Z,98099.41
2022-10-08T10:37:52.354Z,98093.41
2022-10-08T10:40:35.435Z,98083.94
2022-10-08T10:43:23.836Z,98090.97
2022-10-08T10:45:58.149Z,98085.63
2022-10-08T10:48:25.447Z,98078.06
2022-10-08T10:51:03.461Z,98084.56
2022-10-08T10:53:41.259Z,98087.25
2022-10-08T10:56:14.463Z,98078.34
2022-10-08T10:59:01.331Z,98089.16
2022-10-08T11:01:38.343Z,98081.84
2022-10-08T11:04:13.135Z,98084.31
2022-10-08T11:06:59.259Z,98079.47
2022-10-08T11:09:36.135Z,98074.34
2022-10-08T11:12:17.277Z,98077.31
2022-10-08T11:14:57.091Z,98076.25
2022-10-08T11:17:37.013Z,98068.69
2022-10-08T11:20:28.696Z,98067.56
2022-10-08T11:23:03.009Z,98074.31
2022-10-08T11:25:55.727Z,98068.63
2022-10-08T11:28:31.920Z,98066.25
2022-10-08T11:31:09.523Z,98063.28
2022-10-08T11:33:39.448Z,98064.38
2022-10-08T11:36:19.031Z,98066.25
2022-10-08T11:38:53.162Z,98064.34
2022-10-08T11:41:24.251Z,98063.28
2022-10-08T11:43:54.531Z,98065.69
2022-10-08T11:46:27.331Z,98058.69
2022-10-08T11:48:57.743Z,98057.88
2022-10-08T11:51:31.438Z,98061.38
2022-10-08T11:54:15.540Z,98054.38
2022-10-08T11:56:45.715Z,98059.78
2022-10-08T11:59:36.277Z,98062.47
2022-10-08T12:02:07.443Z,98057.91
2022-10-08T12:04:38.032Z,98054.94
2022-10-08T12:07:20.114Z,98055.47
2022-10-08T12:10:16.910Z,98054.09
2022-10-08T12:13:28.156Z,98044.16
2022-10-08T12:15:59.826Z,98038.75
2022-10-08T12:18:41.463Z,98029.88
2022-10-08T12:21:54.061Z,98032.00
2022-10-08T12:24:53.431Z,98041.44
2022-10-08T12:27:23.039Z,98046.84
2022-10-08T12:29:54.452Z,98033.63
2022-10-08T12:32:22.354Z,98030.38
2022-10-08T12:34:49.496Z,98030.91
2022-10-08T12:37:32.079Z,98029.84
2022-10-08T12:40:09.301Z,98027.69
2022-10-08T12:42:39.205Z,98026.88
2022-10-08T12:45:14.871Z,98021.78
2022-10-08T12:47:50.257Z,98025.25
2022-10-08T12:50:36.654Z,98039.59
2022-10-08T12:53:05.868Z,98029.56
2022-10-08T12:55:43.846Z,98032.78
2022-10-08T12:58:17.785Z,98030.66
2022-10-08T13:00:49.801Z,98042.25
2022-10-08T13:03:17.060Z,98033.38
2022-10-08T13:05:44.832Z,98035.53
2022-10-08T13:08:26.892Z,98023.13
2022-10-08T13:10:54.285Z,98023.38
2022-10-08T13:13:35.194Z,98018.50
2022-10-08T13:16:04.382Z,98019.00
2022-10-08T13:18:33.071Z,98019.84
2022-10-08T13:21:02.452Z,98024.72
2022-10-08T13:23:34.909Z,98025.50
2022-10-08T13:26:02.408Z,98030.91
2022-10-08T13:28:55.806Z,98021.75
2022-10-08T13:31:23.806Z,98026.59
2022-10-08T13:33:51.337Z,98023.66
2022-10-08T13:36:22.176Z,98024.97
2022-10-08T13:38:49.333Z,98017.94
2022-10-08T13:41:21.129Z,98012.84
2022-10-08T13:43:48.243Z,98007.47
2022-10-08T13:46:15.367Z,98003.66
2022-10-08T13:48:44.322Z,98000.75
2022-10-08T13:51:11.664Z,98004.22
2022-10-08T13:53:39.041Z,98012.84
2022-10-08T13:56:06.472Z,98015.28
2022-10-08T13:58:33.585Z,98012.28
2022-10-08T14:01:00.751Z,98020.69
2022-10-08T14:03:27.879Z,98012.84
2022-10-08T14:05:56.485Z,98019.31
2022-10-08T14:08:27.525Z,98015.56
2022-10-08T14:10:55.125Z,98015.56
2022-10-08T14:13:22.216Z,98020.66
2022-10-08T14:15:49.470Z,98017.16
2022-10-08T14:18:16.568Z,98023.91
2022-10-08T14:20:43.901Z,98020.16
2022-10-08T14:23:13.168Z,98019.31
2022-10-08T14:25:40.300Z,98020.69
2022-10-08T14:28:07.457Z,98020.94
2022-10-08T14:30:34.592Z,98024.75
2022-10-08T14:33:01.731Z,98034.69
2022-10-08T14:35:28.816Z,98037.16
2022-10-08T14:37:55.942Z,98032.28
2022-10-08T14:40:24.597Z,98029.31
2022-10-08T14:42:52.109Z,98027.97
2022-10-08T14:45:19.323Z,98027.69
2022-10-08T14:47:46.414Z,98034.16
2022-10-08T14:50:13.652Z,98026.06
2022-10-08T14:52:44.320Z,98023.66
2022-10-08T14:55:12.342Z,98027.97
2022-10-08T14:57:40.913Z,98030.66
2022-10-08T15:00:08.707Z,98035.78
2022-10-08T15:02:35.833Z,98029.56
2022-10-08T15:05:03.048Z,98030.41
2022-10-08T15:07:30.159Z,98033.63
2022-10-08T15:09:57.247Z,98037.94
2022-10-08T15:12:25.228Z,98029.59
2022-10-08T15:14:53.740Z,98036.06
2022-10-08T15:17:20.838Z,98040.91
2022-10-08T15:19:47.976Z,98050.63
2022-10-08T15:22:15.113Z,98050.34
2022-10-08T15:24:42.203Z,98056.56
2022-10-08T15:27:09.323Z,98054.09
2022-10-08T15:29:36.423Z,98057.91
2022-10-08T15:32:04.916Z,98063.84
2022-10-08T15:34:32.075Z,98063.53
2022-10-08T15:36:59.195Z,98074.06
2022-10-08T15:39:26.444Z,98070.28
2022-10-08T15:41:53.947Z,98075.13
2022-10-08T15:44:23.310Z,98077.03
2022-10-08T15:46:59.571Z,98080.28
2022-10-08T15:49:31.347Z,98084.59
2022-10-08T15:51:58.705Z,98086.75
2022-10-08T15:54:25.820Z,98092.41
2022-10-08T15:56:53.012Z,98100.75
2022-10-08T15:59:20.392Z,98104.56
2022-10-08T16:01:47.516Z,98107.50
2022-10-08T16:04:14.880Z,98109.94
2022-10-08T16:06:43.379Z,98109.94
2022-10-08T16:09:11.051Z,98119.38
2022-10-08T16:11:38.386Z,98113.72
2022-10-08T16:14:07.348Z,98115.88
2022-10-08T16:16:34.634Z,98120.44
2022-10-08T16:19:04.078Z,98125.31
2022-10-08T16:21:32.606Z,98126.13
2022-10-08T16:24:01.374Z,98121.50
2022-10-08T16:26:30.359Z,98129.91
2022-10-08T16:28:59.612Z,98125.03
2022-10-08T16:31:28.544Z,98130.44
2022-10-08T16:33:56.826Z,98134.19
2022-10-08T16:36:24.568Z,98137.69
2022-10-08T16:38:52.014Z,98139.59
2022-10-08T16:41:22.102Z,98141.50
2022-10-08T16:43:51.212Z,98140.13
2022-10-08T16:46:20.573Z,98142.84
2022-10-08T16:48:51.547Z,98144.47
2022-10-08T16:51:18.896Z,98146.63
2022-10-08T16:53:49.583Z,98144.72
2022-10-08T16:56:17.629Z,98148.25
2022-10-08T16:58:51.101Z,98149.06
2022-10-08T17:01:18.429Z,98152.81
2022-10-08T17:03:45.568Z,98160.09
2022-10-08T17:06:12.864Z,98156.88
2022-10-08T17:08:39.980Z,98164.16
2022-10-08T17:11:09.239Z,98167.66
2022-10-08T17:13:41.490Z,98174.41
2022-10-08T17:16:10.892Z,98182.22
2022-10-08T17:18:38.187Z,98190.84
2022-10-08T17:21:06.776Z,98188.13
2022-10-08T17:23:35.285Z,98191.66
2022-10-08T17:26:05.385Z,98195.16
2022-10-08T17:28:34.728Z,98198.94
2022-10-08T17:31:03.798Z,98197.34
2022-10-08T17:33:35.736Z,98201.09
2022-10-08T17:36:06.159Z,98199.75
2022-10-08T17:38:34.212Z,98204.09
2022-10-08T17:41:01.620Z,98208.38
2022-10-08T17:43:28.721Z,98207.31
2022-10-08T17:46:05.034Z,98213.25
2022-10-08T17:48:33.598Z,98215.13
2022-10-08T17:51:01.267Z,98225.38
2022-10-08T17:53:28.491Z,98225.38
2022-10-08T17:55:59.238Z,98227.81
2022-10-08T17:58:26.377Z,98228.88
2022-10-08T18:00:53.640Z,98239.69
2022-10-08T18:03:20.759Z,98249.13
2022-10-08T18:05:57.378Z,98249.66
2022-10-08T18:08:24.887Z,98253.47
2022-10-08T18:10:52.497Z,98263.97
2022-10-08T18:13:19.903Z,98259.91
2022-10-08T18:15:47.459Z,98271.50
2022-10-08T18:18:14.712Z,98264.75
2022-10-08T18:20:52.534Z,98272.31
2022-10-08T18:23:21.329Z,98268.28
2022-10-08T18:25:52.990Z,98281.75
2022-10-08T18:28:21.233Z,98282.84
2022-10-08T18:30:48.538Z,98289.03
2022-10-08T18:33:15.881Z,98293.13
2022-10-08T18:35:42.994Z,98295.00
2022-10-08T18:38:10.092Z,98300.94
2022-10-08T18:40:38.542Z,98301.22
2022-10-08T18:43:05.785Z,98303.66
2022-10-08T18:45:35.750Z,98311.47
2022-10-08T18:48:02.852Z,98314.44
2022-10-08T18:50:29.970Z,98309.31
2022-10-08T18:52:57.366Z,98314.72
2022-10-08T18:55:24.493Z,98317.69
2022-10-08T18:57:54.010Z,98319.28
2022-10-08T19:00:21.149Z,98329.84
2022-10-08T19:02:48.417Z,98335.22
2022-10-08T19:05:15.976Z,98334.69
2022-10-08T19:07:43.103Z,98339.28
2022-10-08T19:10:10.328Z,98342.00
2022-10-08T19:12:37.428Z,98343.06
2022-10-08T19:15:06.956Z,98344.97
2022-10-08T19:17:34.631Z,98345.50
2022-10-08T19:20:01.768Z,98358.16
2022-10-08T19:22:28.866Z,98355.22
2022-10-08T19:24:55.962Z,98349.28
2022-10-08T19:27:23.146Z,98359.53
2022-10-08T19:29:50.244Z,98360.66
2022-10-08T19:32:18.706Z,98369.78
2022-10-08T19:34:45.842Z,98371.44
2022-10-08T19:37:12.943Z,98376.84
2022-10-08T19:39:43.877Z,98377.13
2022-10-08T19:42:11.364Z,98383.88
2022-10-08T19:44:38.478Z,98385.47
2022-10-08T19:47:05.636Z,98387.09
2022-10-08T19:49:34.223Z,98394.38
2022-10-08T19:52:01.333Z,98392.78
2022-10-08T19:54:28.521Z,98393.59
2022-10-08T19:56:55.647Z,98400.34
2022-10-08T19:59:22.764Z,98400.03
2022-10-08T20:01:49.961Z,98410.00
2022-10-08T20:04:17.182Z,98411.63
2022-10-08T20:06:45.631Z,98416.22
2022-10-08T20:09:13.877Z,98424.03
2022-10-08T20:11:42.637Z,98428.34
2022-10-08T20:14:10.511Z,98432.38
2022-10-08T20:16:39.251Z,98430.78
2022-10-08T20:19:08.242Z,98434.25
2022-10-08T20:21:37.326Z,98432.09
2022-10-08T20:24:06.645Z,98438.84
2022-10-08T20:26:35.186Z,98447.22
2022-10-08T20:29:05.510Z,98446.16
2022-10-08T20:31:34.724Z,98446.69
2022-10-08T20:34:03.639Z,98458.56
2022-10-08T20:36:31.328Z,98453.97
2022-10-08T20:38:58.799Z,98448.31
2022-10-08T20:41:31.010Z,98462.88
2022-10-08T20:43:59.608Z,98459.13
2022-10-08T20:46:27.199Z,98460.97
2022-10-08T20:48:54.485Z,98465.56
2022-10-08T20:51:23.148Z,98465.84
2022-10-08T20:53:52.634Z,98466.38
2022-10-08T20:56:20.772Z,98470.41
2022-10-08T20:58:50.148Z,98472.28
2022-10-08T21:01:19.763Z,98474.69
2022-10-08T21:03:47.901Z,98488.22
2022-10-08T21:06:17.562Z,98478.22
2022-10-08T21:08:46.451Z,98476.09
2022-10-08T21:11:16.522Z,98482.81
2022-10-08T21:13:44.634Z,98489.28
2022-10-08T21:16:15.751Z,98490.13
2022-10-08T21:18:43.692Z,98489.06
2022-10-08T21:21:12.920Z,98489.59
2022-10-08T21:23:41.086Z,98495.78
2022-10-08T21:26:10.779Z,98503.34
2022-10-08T21:28:38.463Z,98499.31
2022-10-08T21:31:07.102Z,98497.94
2022-10-08T21:33:36.610Z,98501.97
2022-10-08T21:36:04.716Z,98498.72
2022-10-08T21:38:32.345Z,98507.88
2022-10-08T21:41:00.885Z,98508.97
2022-10-08T21:43:29.998Z,98513.03
2022-10-08T21:45:58.808Z,98511.91
2022-10-08T21:48:27.169Z,98517.59
2022-10-08T21:51:00.525Z,98512.22
2022-10-08T21:53:29.811Z,98519.22
2022-10-08T21:55:58.704Z,98527.31
2022-10-08T21:58:27.243Z,98521.91
2022-10-08T22:00:54.892Z,98531.13
2022-10-08T22:03:22.886Z,98528.16
2022-10-08T22:05:51.685Z,98532.22
2022-10-08T22:08:20.871Z,98516.00
2022-10-08T22:10:48.732Z,98523.56
2022-10-08T22:13:16.455Z,98528.16
2022-10-08T22:15:54.460Z,98528.41
2022-10-08T22:18:22.203Z,98523.03
2022-10-08T22:20:49.772Z,98528.94
2022-10-08T22:23:17.146Z,98518.41
2022-10-08T22:25:53.315Z,98528.66
2022-10-08T22:28:21.311Z,98518.94
2022-10-08T22:30:48.719Z,98514.88
2022-10-08T22:33:16.379Z,98520.00
2022-10-08T22:35:43.709Z,98517.84
2022-10-08T22:38:11.283Z,98522.13
2022-10-08T22:40:38.854Z,98519.19
2022-10-08T22:43:07.355Z,98520.28
2022-10-08T22:45:36.984Z,98528.91
2022-10-08T22:48:04.381Z,98530.53
2022-10-08T22:50:33.809Z,98528.13
2022-10-08T22:53:01.263Z,98527.88
2022-10-08T22:55:28.469Z,98533.78
2022-10-08T22:57:55.976Z,98532.69
2022-10-08T23:00:24.433Z,98532.97
2022-10-08T23:02:51.742Z,98535.41
2022-10-08T23:05:18.969Z,98533.78
2022-10-08T23:07:46.070Z,98526.78
2022-10-08T23:10:13.179Z,98527.03
2022-10-08T23:12:40.275Z,98535.94
2022-10-08T23:15:08.199Z,98531.06
2022-10-08T23:17:37.033Z,98537.78
2022-10-08T23:20:05.030Z,98529.13
2022-10-08T23:22:32.148Z,98533.47
2022-10-08T23:24:59.285Z,98536.69
2022-10-08T23:27:26.434Z,98536.69
2022-10-08T23:29:53.546Z,98537.78
2022-10-08T23:32:20.641Z,98537.22
2022-10-08T23:34:49.105Z,98544.28
2022-10-08T23:37:16.193Z,98549.63
2022-10-08T23:39:43.306Z,98538.88
2022-10-08T23:42:10.400Z,98545.31
2022-10-08T23:44:37.557Z,98541.31
2022-10-08T23:47:04.691Z,98545.06
2022-10-08T23:49:31.800Z,98548.03
2022-10-08T23:52:00.267Z,98547.22
2022-10-08T23:54:27.412Z,98544.78
2022-10-08T23:56:54.524Z,98548.28
2022-10-08T23:59:21.639Z,98543.16
